sensor_id;sensor_type;location;lat;lon;timestamp;P1;durP1;ratioP1;P2;durP2;ratioP2
22240;SDS011;11289;52.524;13.694;2024-03-02T00:00:49;55.20;;;40.05;;
22240;SDS011;11289;52.524;13.694;2024-03-02T00:03:15;57.90;;;39.88;;
22240;SDS011;11289;52.524;13.694;2024-03-02T00:05:41;59.30;;;39.63;;
22240;SDS011;11289;52.524;13.694;2024-03-02T00:08:07;57.92;;;38.85;;
22240;SDS011;11289;52.524;13.694;2024-03-02T00:13:06;59.47;;;38.88;;
22240;SDS011;11289;52.524;13.694;2024-03-02T00:18:11;53.53;;;38.08;;
22240;SDS011;11289;52.524;13.694;2024-03-02T00:20:39;53.35;;;39.00;;
22240;SDS011;11289;52.524;13.694;2024-03-02T00:23:06;58.72;;;39.13;;
22240;SDS011;11289;52.524;13.694;2024-03-02T00:25:50;59.15;;;38.92;;
22240;SDS011;11289;52.524;13.694;2024-03-02T00:30:58;57.92;;;39.22;;
22240;SDS011;11289;52.524;13.694;2024-03-02T00:33:30;55.23;;;39.60;;
22240;SDS011;11289;52.524;13.694;2024-03-02T00:36:00;42.70;;;30.00;;
22240;SDS011;11289;52.524;13.694;2024-03-02T00:38:29;60.22;;;38.92;;
22240;SDS011;11289;52.524;13.694;2024-03-02T00:40:57;62.67;;;40.10;;
22240;SDS011;11289;52.524;13.694;2024-03-02T00:46:02;59.20;;;39.20;;
22240;SDS011;11289;52.524;13.694;2024-03-02T00:48:29;57.50;;;41.90;;
22240;SDS011;11289;52.524;13.694;2024-03-02T00:50:57;55.03;;;37.92;;
22240;SDS011;11289;52.524;13.694;2024-03-02T00:53:23;60.17;;;40.35;;
22240;SDS011;11289;52.524;13.694;2024-03-02T00:55:52;60.95;;;40.65;;
22240;SDS011;11289;52.524;13.694;2024-03-02T00:58:18;58.22;;;38.58;;
22240;SDS011;11289;52.524;13.694;2024-03-02T01:00:44;60.80;;;40.38;;
22240;SDS011;11289;52.524;13.694;2024-03-02T01:03:10;58.83;;;40.40;;
22240;SDS011;11289;52.524;13.694;2024-03-02T01:05:46;61.47;;;40.30;;
22240;SDS011;11289;52.524;13.694;2024-03-02T01:08:12;56.53;;;39.20;;
22240;SDS011;11289;52.524;13.694;2024-03-02T01:10:38;58.30;;;40.35;;
22240;SDS011;11289;52.524;13.694;2024-03-02T01:13:04;57.85;;;39.60;;
22240;SDS011;11289;52.524;13.694;2024-03-02T01:15:30;56.22;;;40.15;;
22240;SDS011;11289;52.524;13.694;2024-03-02T01:17:56;54.67;;;38.60;;
22240;SDS011;11289;52.524;13.694;2024-03-02T01:20:22;56.33;;;38.75;;
22240;SDS011;11289;52.524;13.694;2024-03-02T01:22:48;59.10;;;39.72;;
22240;SDS011;11289;52.524;13.694;2024-03-02T01:25:14;52.78;;;39.03;;
22240;SDS011;11289;52.524;13.694;2024-03-02T01:27:40;56.42;;;39.78;;
22240;SDS011;11289;52.524;13.694;2024-03-02T01:30:06;65.55;;;42.80;;
22240;SDS011;11289;52.524;13.694;2024-03-02T01:32:32;62.47;;;41.25;;
22240;SDS011;11289;52.524;13.694;2024-03-02T01:34:58;58.10;;;40.30;;
22240;SDS011;11289;52.524;13.694;2024-03-02T01:37:24;67.43;;;43.53;;
22240;SDS011;11289;52.524;13.694;2024-03-02T01:39:50;57.92;;;40.13;;
22240;SDS011;11289;52.524;13.694;2024-03-02T01:42:16;62.80;;;41.63;;
22240;SDS011;11289;52.524;13.694;2024-03-02T01:44:42;61.50;;;41.53;;
22240;SDS011;11289;52.524;13.694;2024-03-02T01:47:08;65.68;;;43.17;;
22240;SDS011;11289;52.524;13.694;2024-03-02T01:49:34;63.85;;;42.50;;
22240;SDS011;11289;52.524;13.694;2024-03-02T01:52:00;58.72;;;40.85;;
22240;SDS011;11289;52.524;13.694;2024-03-02T01:54:26;59.95;;;39.80;;
22240;SDS011;11289;52.524;13.694;2024-03-02T01:56:51;61.40;;;42.88;;
22240;SDS011;11289;52.524;13.694;2024-03-02T01:59:17;62.83;;;41.35;;
22240;SDS011;11289;52.524;13.694;2024-03-02T02:01:43;61.45;;;40.95;;
22240;SDS011;11289;52.524;13.694;2024-03-02T02:04:09;59.67;;;40.53;;
22240;SDS011;11289;52.524;13.694;2024-03-02T02:06:35;67.60;;;43.30;;
22240;SDS011;11289;52.524;13.694;2024-03-02T02:09:01;69.88;;;43.67;;
22240;SDS011;11289;52.524;13.694;2024-03-02T02:11:28;63.83;;;42.70;;
22240;SDS011;11289;52.524;13.694;2024-03-02T02:13:54;62.78;;;43.85;;
22240;SDS011;11289;52.524;13.694;2024-03-02T02:16:21;70.30;;;45.10;;
22240;SDS011;11289;52.524;13.694;2024-03-02T02:18:47;67.88;;;46.10;;
22240;SDS011;11289;52.524;13.694;2024-03-02T02:21:13;64.47;;;42.28;;
22240;SDS011;11289;52.524;13.694;2024-03-02T02:23:39;69.95;;;45.70;;
22240;SDS011;11289;52.524;13.694;2024-03-02T02:26:05;66.13;;;42.20;;
22240;SDS011;11289;52.524;13.694;2024-03-02T02:28:31;68.90;;;44.35;;
22240;SDS011;11289;52.524;13.694;2024-03-02T02:30:57;66.88;;;45.10;;
22240;SDS011;11289;52.524;13.694;2024-03-02T02:33:23;70.35;;;45.60;;
22240;SDS011;11289;52.524;13.694;2024-03-02T02:35:49;72.72;;;47.13;;
22240;SDS011;11289;52.524;13.694;2024-03-02T02:38:15;70.85;;;45.90;;
22240;SDS011;11289;52.524;13.694;2024-03-02T02:40:41;70.15;;;47.50;;
22240;SDS011;11289;52.524;13.694;2024-03-02T02:43:07;75.40;;;45.67;;
22240;SDS011;11289;52.524;13.694;2024-03-02T02:45:33;74.18;;;46.38;;
22240;SDS011;11289;52.524;13.694;2024-03-02T02:47:59;76.15;;;46.58;;
22240;SDS011;11289;52.524;13.694;2024-03-02T02:50:26;71.28;;;47.92;;
22240;SDS011;11289;52.524;13.694;2024-03-02T02:52:52;69.80;;;48.35;;
22240;SDS011;11289;52.524;13.694;2024-03-02T02:55:18;72.38;;;44.85;;
22240;SDS011;11289;52.524;13.694;2024-03-02T02:57:44;73.78;;;45.92;;
22240;SDS011;11289;52.524;13.694;2024-03-02T03:00:12;72.53;;;45.38;;
22240;SDS011;11289;52.524;13.694;2024-03-02T03:02:43;73.85;;;47.42;;
22240;SDS011;11289;52.524;13.694;2024-03-02T03:05:12;73.25;;;45.80;;
22240;SDS011;11289;52.524;13.694;2024-03-02T03:07:40;74.22;;;45.53;;
22240;SDS011;11289;52.524;13.694;2024-03-02T03:10:07;70.32;;;45.45;;
22240;SDS011;11289;52.524;13.694;2024-03-02T03:12:33;72.38;;;46.22;;
22240;SDS011;11289;52.524;13.694;2024-03-02T03:15:00;73.47;;;47.03;;
22240;SDS011;11289;52.524;13.694;2024-03-02T03:17:27;72.70;;;46.90;;
22240;SDS011;11289;52.524;13.694;2024-03-02T03:19:53;73.57;;;47.20;;
22240;SDS011;11289;52.524;13.694;2024-03-02T03:22:19;70.70;;;45.53;;
22240;SDS011;11289;52.524;13.694;2024-03-02T03:24:45;67.88;;;45.50;;
22240;SDS011;11289;52.524;13.694;2024-03-02T03:27:11;73.22;;;46.47;;
22240;SDS011;11289;52.524;13.694;2024-03-02T03:29:37;66.38;;;43.47;;
22240;SDS011;11289;52.524;13.694;2024-03-02T03:32:03;68.18;;;45.55;;
22240;SDS011;11289;52.524;13.694;2024-03-02T03:34:33;69.00;;;44.67;;
22240;SDS011;11289;52.524;13.694;2024-03-02T03:37:00;64.97;;;42.13;;
22240;SDS011;11289;52.524;13.694;2024-03-02T03:39:26;74.95;;;43.58;;
22240;SDS011;11289;52.524;13.694;2024-03-02T03:41:52;68.45;;;43.67;;
22240;SDS011;11289;52.524;13.694;2024-03-02T03:44:18;66.55;;;44.10;;
22240;SDS011;11289;52.524;13.694;2024-03-02T03:46:44;64.72;;;43.53;;
22240;SDS011;11289;52.524;13.694;2024-03-02T03:49:10;62.65;;;42.70;;
22240;SDS011;11289;52.524;13.694;2024-03-02T03:51:36;65.55;;;42.40;;
22240;SDS011;11289;52.524;13.694;2024-03-02T03:54:02;60.55;;;40.42;;
22240;SDS011;11289;52.524;13.694;2024-03-02T03:56:28;65.00;;;42.08;;
22240;SDS011;11289;52.524;13.694;2024-03-02T03:58:54;64.32;;;39.75;;
22240;SDS011;11289;52.524;13.694;2024-03-02T04:01:19;62.47;;;40.63;;
22240;SDS011;11289;52.524;13.694;2024-03-02T04:03:47;63.88;;;40.72;;
22240;SDS011;11289;52.524;13.694;2024-03-02T04:06:14;62.78;;;41.65;;
22240;SDS011;11289;52.524;13.694;2024-03-02T04:08:42;62.22;;;42.15;;
22240;SDS011;11289;52.524;13.694;2024-03-02T04:11:07;64.50;;;42.08;;
22240;SDS011;11289;52.524;13.694;2024-03-02T04:13:33;64.43;;;42.13;;
22240;SDS011;11289;52.524;13.694;2024-03-02T04:15:59;60.67;;;40.78;;
22240;SDS011;11289;52.524;13.694;2024-03-02T04:18:25;66.03;;;42.38;;
22240;SDS011;11289;52.524;13.694;2024-03-02T04:20:51;62.58;;;39.88;;
22240;SDS011;11289;52.524;13.694;2024-03-02T04:23:17;60.35;;;40.67;;
22240;SDS011;11289;52.524;13.694;2024-03-02T04:25:43;61.47;;;39.80;;
22240;SDS011;11289;52.524;13.694;2024-03-02T04:28:09;58.75;;;39.20;;
22240;SDS011;11289;52.524;13.694;2024-03-02T04:30:35;59.17;;;41.03;;
22240;SDS011;11289;52.524;13.694;2024-03-02T04:33:01;63.03;;;40.33;;
22240;SDS011;11289;52.524;13.694;2024-03-02T04:35:29;62.30;;;39.65;;
22240;SDS011;11289;52.524;13.694;2024-03-02T04:37:55;57.40;;;38.78;;
22240;SDS011;11289;52.524;13.694;2024-03-02T04:40:21;59.35;;;40.28;;
22240;SDS011;11289;52.524;13.694;2024-03-02T04:42:47;56.67;;;37.60;;
22240;SDS011;11289;52.524;13.694;2024-03-02T04:45:13;56.42;;;39.13;;
22240;SDS011;11289;52.524;13.694;2024-03-02T04:47:39;56.40;;;38.67;;
22240;SDS011;11289;52.524;13.694;2024-03-02T04:50:05;55.80;;;38.45;;
22240;SDS011;11289;52.524;13.694;2024-03-02T04:52:33;54.80;;;36.80;;
22240;SDS011;11289;52.524;13.694;2024-03-02T04:54:59;62.20;;;37.47;;
22240;SDS011;11289;52.524;13.694;2024-03-02T04:57:43;57.95;;;38.70;;
22240;SDS011;11289;52.524;13.694;2024-03-02T05:00:10;55.75;;;38.20;;
22240;SDS011;11289;52.524;13.694;2024-03-02T05:02:36;61.88;;;38.45;;
22240;SDS011;11289;52.524;13.694;2024-03-02T05:05:02;54.63;;;39.08;;
22240;SDS011;11289;52.524;13.694;2024-03-02T05:07:28;52.53;;;37.42;;
22240;SDS011;11289;52.524;13.694;2024-03-02T05:09:54;53.85;;;36.75;;
22240;SDS011;11289;52.524;13.694;2024-03-02T05:12:20;58.67;;;38.53;;
22240;SDS011;11289;52.524;13.694;2024-03-02T05:15:05;59.45;;;38.50;;
22240;SDS011;11289;52.524;13.694;2024-03-02T05:17:32;60.20;;;38.97;;
22240;SDS011;11289;52.524;13.694;2024-03-02T05:19:59;56.80;;;38.70;;
22240;SDS011;11289;52.524;13.694;2024-03-02T05:22:25;53.70;;;36.92;;
22240;SDS011;11289;52.524;13.694;2024-03-02T05:24:51;56.15;;;35.83;;
22240;SDS011;11289;52.524;13.694;2024-03-02T05:27:16;54.38;;;38.00;;
22240;SDS011;11289;52.524;13.694;2024-03-02T05:29:42;53.55;;;36.03;;
22240;SDS011;11289;52.524;13.694;2024-03-02T05:32:08;54.25;;;36.50;;
22240;SDS011;11289;52.524;13.694;2024-03-02T05:34:34;52.90;;;37.22;;
22240;SDS011;11289;52.524;13.694;2024-03-02T05:37:01;56.15;;;38.17;;
22240;SDS011;11289;52.524;13.694;2024-03-02T05:39:27;60.28;;;37.80;;
22240;SDS011;11289;52.524;13.694;2024-03-02T05:41:53;47.70;;;35.97;;
22240;SDS011;11289;52.524;13.694;2024-03-02T05:44:19;55.25;;;37.00;;
22240;SDS011;11289;52.524;13.694;2024-03-02T05:46:45;49.25;;;36.17;;
22240;SDS011;11289;52.524;13.694;2024-03-02T05:49:11;56.00;;;36.58;;
22240;SDS011;11289;52.524;13.694;2024-03-02T05:51:37;57.20;;;36.80;;
22240;SDS011;11289;52.524;13.694;2024-03-02T05:54:03;52.38;;;35.80;;
22240;SDS011;11289;52.524;13.694;2024-03-02T05:56:29;49.95;;;34.65;;
22240;SDS011;11289;52.524;13.694;2024-03-02T05:58:55;53.17;;;35.33;;
22240;SDS011;11289;52.524;13.694;2024-03-02T06:01:39;53.92;;;35.03;;
22240;SDS011;11289;52.524;13.694;2024-03-02T06:04:06;57.83;;;37.03;;
22240;SDS011;11289;52.524;13.694;2024-03-02T06:06:32;56.92;;;37.20;;
22240;SDS011;11289;52.524;13.694;2024-03-02T06:09:02;55.25;;;36.08;;
22240;SDS011;11289;52.524;13.694;2024-03-02T06:11:39;51.15;;;35.38;;
22240;SDS011;11289;52.524;13.694;2024-03-02T06:14:06;52.33;;;35.17;;
22240;SDS011;11289;52.524;13.694;2024-03-02T06:16:33;53.97;;;35.20;;
22240;SDS011;11289;52.524;13.694;2024-03-02T06:19:00;51.80;;;35.65;;
22240;SDS011;11289;52.524;13.694;2024-03-02T06:21:26;48.25;;;36.05;;
22240;SDS011;11289;52.524;13.694;2024-03-02T06:23:53;52.03;;;36.10;;
22240;SDS011;11289;52.524;13.694;2024-03-02T06:26:19;53.97;;;35.55;;
22240;SDS011;11289;52.524;13.694;2024-03-02T06:28:46;53.05;;;34.38;;
22240;SDS011;11289;52.524;13.694;2024-03-02T06:31:12;50.60;;;34.38;;
22240;SDS011;11289;52.524;13.694;2024-03-02T06:33:38;58.75;;;35.55;;
22240;SDS011;11289;52.524;13.694;2024-03-02T06:36:05;57.28;;;37.00;;
22240;SDS011;11289;52.524;13.694;2024-03-02T06:38:34;58.63;;;36.25;;
22240;SDS011;11289;52.524;13.694;2024-03-02T06:41:00;56.70;;;35.38;;
22240;SDS011;11289;52.524;13.694;2024-03-02T06:43:26;59.63;;;37.05;;
22240;SDS011;11289;52.524;13.694;2024-03-02T06:45:52;59.95;;;36.17;;
22240;SDS011;11289;52.524;13.694;2024-03-02T06:48:18;56.70;;;36.58;;
22240;SDS011;11289;52.524;13.694;2024-03-02T06:50:48;53.83;;;37.22;;
22240;SDS011;11289;52.524;13.694;2024-03-02T06:53:15;56.78;;;38.08;;
22240;SDS011;11289;52.524;13.694;2024-03-02T06:55:45;53.15;;;37.45;;
22240;SDS011;11289;52.524;13.694;2024-03-02T06:58:12;56.45;;;37.35;;
22240;SDS011;11289;52.524;13.694;2024-03-02T07:00:41;59.08;;;36.42;;
22240;SDS011;11289;52.524;13.694;2024-03-02T07:03:08;56.05;;;36.40;;
22240;SDS011;11289;52.524;13.694;2024-03-02T07:05:34;57.90;;;39.33;;
22240;SDS011;11289;52.524;13.694;2024-03-02T07:08:00;61.67;;;40.33;;
22240;SDS011;11289;52.524;13.694;2024-03-02T07:10:27;59.03;;;40.25;;
22240;SDS011;11289;52.524;13.694;2024-03-02T07:12:53;59.90;;;41.35;;
22240;SDS011;11289;52.524;13.694;2024-03-02T07:15:19;57.65;;;39.25;;
22240;SDS011;11289;52.524;13.694;2024-03-02T07:17:54;61.67;;;39.60;;
22240;SDS011;11289;52.524;13.694;2024-03-02T07:20:20;61.47;;;38.78;;
22240;SDS011;11289;52.524;13.694;2024-03-02T07:22:46;60.47;;;39.20;;
22240;SDS011;11289;52.524;13.694;2024-03-02T07:25:12;58.75;;;39.13;;
22240;SDS011;11289;52.524;13.694;2024-03-02T07:27:38;66.75;;;41.83;;
22240;SDS011;11289;52.524;13.694;2024-03-02T07:30:05;59.60;;;40.20;;
22240;SDS011;11289;52.524;13.694;2024-03-02T07:32:32;66.85;;;41.05;;
22240;SDS011;11289;52.524;13.694;2024-03-02T07:34:57;61.08;;;38.88;;
22240;SDS011;11289;52.524;13.694;2024-03-02T07:37:23;57.70;;;38.90;;
22240;SDS011;11289;52.524;13.694;2024-03-02T07:39:50;60.38;;;40.13;;
22240;SDS011;11289;52.524;13.694;2024-03-02T07:42:16;64.65;;;43.53;;
22240;SDS011;11289;52.524;13.694;2024-03-02T07:44:45;64.32;;;42.42;;
22240;SDS011;11289;52.524;13.694;2024-03-02T07:47:11;64.53;;;43.78;;
22240;SDS011;11289;52.524;13.694;2024-03-02T07:49:37;66.32;;;41.47;;
22240;SDS011;11289;52.524;13.694;2024-03-02T07:52:03;67.93;;;41.28;;
22240;SDS011;11289;52.524;13.694;2024-03-02T07:54:29;68.57;;;42.55;;
22240;SDS011;11289;52.524;13.694;2024-03-02T07:56:55;64.40;;;42.80;;
22240;SDS011;11289;52.524;13.694;2024-03-02T07:59:21;70.25;;;42.05;;
22240;SDS011;11289;52.524;13.694;2024-03-02T08:01:48;64.07;;;42.55;;
22240;SDS011;11289;52.524;13.694;2024-03-02T08:04:15;64.03;;;40.85;;
22240;SDS011;11289;52.524;13.694;2024-03-02T08:06:41;58.95;;;40.47;;
22240;SDS011;11289;52.524;13.694;2024-03-02T08:09:07;60.22;;;40.33;;
22240;SDS011;11289;52.524;13.694;2024-03-02T08:11:36;59.72;;;40.67;;
22240;SDS011;11289;52.524;13.694;2024-03-02T08:14:03;58.70;;;40.97;;
22240;SDS011;11289;52.524;13.694;2024-03-02T08:16:29;67.35;;;40.20;;
22240;SDS011;11289;52.524;13.694;2024-03-02T08:18:55;63.60;;;42.30;;
22240;SDS011;11289;52.524;13.694;2024-03-02T08:21:23;63.22;;;38.88;;
22240;SDS011;11289;52.524;13.694;2024-03-02T08:23:50;62.15;;;40.45;;
22240;SDS011;11289;52.524;13.694;2024-03-02T08:26:16;65.70;;;39.40;;
22240;SDS011;11289;52.524;13.694;2024-03-02T08:28:42;60.92;;;39.50;;
22240;SDS011;11289;52.524;13.694;2024-03-02T08:31:08;54.20;;;36.42;;
22240;SDS011;11289;52.524;13.694;2024-03-02T08:33:34;63.67;;;38.20;;
22240;SDS011;11289;52.524;13.694;2024-03-02T08:36:01;60.80;;;39.35;;
22240;SDS011;11289;52.524;13.694;2024-03-02T08:38:27;59.38;;;39.28;;
22240;SDS011;11289;52.524;13.694;2024-03-02T08:40:53;58.47;;;39.42;;
22240;SDS011;11289;52.524;13.694;2024-03-02T08:43:19;65.80;;;40.35;;
22240;SDS011;11289;52.524;13.694;2024-03-02T08:45:45;58.08;;;40.78;;
22240;SDS011;11289;52.524;13.694;2024-03-02T08:48:12;61.50;;;41.30;;
22240;SDS011;11289;52.524;13.694;2024-03-02T08:50:38;63.55;;;42.05;;
22240;SDS011;11289;52.524;13.694;2024-03-02T08:53:04;61.67;;;38.30;;
22240;SDS011;11289;52.524;13.694;2024-03-02T08:55:32;60.03;;;38.45;;
22240;SDS011;11289;52.524;13.694;2024-03-02T08:58:01;58.80;;;37.03;;
22240;SDS011;11289;52.524;13.694;2024-03-02T09:00:27;58.00;;;37.17;;
22240;SDS011;11289;52.524;13.694;2024-03-02T09:02:54;52.78;;;37.20;;
22240;SDS011;11289;52.524;13.694;2024-03-02T09:05:21;54.90;;;35.88;;
22240;SDS011;11289;52.524;13.694;2024-03-02T09:07:53;53.30;;;36.90;;
22240;SDS011;11289;52.524;13.694;2024-03-02T09:10:20;58.05;;;37.05;;
22240;SDS011;11289;52.524;13.694;2024-03-02T09:12:46;56.53;;;35.90;;
22240;SDS011;11289;52.524;13.694;2024-03-02T09:15:12;54.35;;;36.65;;
22240;SDS011;11289;52.524;13.694;2024-03-02T09:17:41;58.33;;;36.28;;
22240;SDS011;11289;52.524;13.694;2024-03-02T09:20:08;57.45;;;37.55;;
22240;SDS011;11289;52.524;13.694;2024-03-02T09:22:37;48.72;;;35.67;;
22240;SDS011;11289;52.524;13.694;2024-03-02T09:25:06;54.20;;;34.97;;
22240;SDS011;11289;52.524;13.694;2024-03-02T09:27:38;53.30;;;35.63;;
22240;SDS011;11289;52.524;13.694;2024-03-02T09:30:07;53.75;;;36.40;;
22240;SDS011;11289;52.524;13.694;2024-03-02T09:32:33;55.67;;;36.55;;
22240;SDS011;11289;52.524;13.694;2024-03-02T09:35:02;51.75;;;35.30;;
22240;SDS011;11289;52.524;13.694;2024-03-02T09:37:29;54.70;;;35.55;;
22240;SDS011;11289;52.524;13.694;2024-03-02T09:39:57;56.05;;;35.53;;
22240;SDS011;11289;52.524;13.694;2024-03-02T09:42:24;54.20;;;34.70;;
22240;SDS011;11289;52.524;13.694;2024-03-02T09:44:53;54.60;;;35.45;;
22240;SDS011;11289;52.524;13.694;2024-03-02T09:47:20;50.03;;;33.33;;
22240;SDS011;11289;52.524;13.694;2024-03-02T09:49:47;55.25;;;35.13;;
22240;SDS011;11289;52.524;13.694;2024-03-02T09:52:13;51.50;;;34.55;;
22240;SDS011;11289;52.524;13.694;2024-03-02T09:54:40;52.50;;;33.85;;
22240;SDS011;11289;52.524;13.694;2024-03-02T09:57:06;49.70;;;32.97;;
22240;SDS011;11289;52.524;13.694;2024-03-02T09:59:32;46.50;;;31.73;;
22240;SDS011;11289;52.524;13.694;2024-03-02T10:01:58;49.75;;;32.90;;
22240;SDS011;11289;52.524;13.694;2024-03-02T10:04:26;45.70;;;32.63;;
22240;SDS011;11289;52.524;13.694;2024-03-02T10:07:14;47.53;;;31.85;;
22240;SDS011;11289;52.524;13.694;2024-03-02T10:09:43;46.58;;;30.88;;
22240;SDS011;11289;52.524;13.694;2024-03-02T10:12:11;48.53;;;31.92;;
22240;SDS011;11289;52.524;13.694;2024-03-02T10:14:38;47.20;;;31.40;;
22240;SDS011;11289;52.524;13.694;2024-03-02T10:17:05;46.67;;;31.83;;
22240;SDS011;11289;52.524;13.694;2024-03-02T10:19:33;44.40;;;28.55;;
22240;SDS011;11289;52.524;13.694;2024-03-02T10:22:04;44.08;;;28.73;;
22240;SDS011;11289;52.524;13.694;2024-03-02T10:24:35;41.05;;;27.30;;
22240;SDS011;11289;52.524;13.694;2024-03-02T10:27:02;40.55;;;27.77;;
22240;SDS011;11289;52.524;13.694;2024-03-02T10:29:34;43.47;;;28.70;;
22240;SDS011;11289;52.524;13.694;2024-03-02T10:32:02;44.95;;;28.70;;
22240;SDS011;11289;52.524;13.694;2024-03-02T10:34:28;42.72;;;27.77;;
22240;SDS011;11289;52.524;13.694;2024-03-02T10:36:54;40.03;;;25.63;;
22240;SDS011;11289;52.524;13.694;2024-03-02T10:39:21;35.83;;;25.35;;
22240;SDS011;11289;52.524;13.694;2024-03-02T10:41:47;35.50;;;25.73;;
22240;SDS011;11289;52.524;13.694;2024-03-02T10:44:15;38.58;;;26.05;;
22240;SDS011;11289;52.524;13.694;2024-03-02T10:46:41;34.03;;;23.02;;
22240;SDS011;11289;52.524;13.694;2024-03-02T10:49:11;39.75;;;25.10;;
22240;SDS011;11289;52.524;13.694;2024-03-02T10:51:37;33.30;;;22.98;;
22240;SDS011;11289;52.524;13.694;2024-03-02T10:54:03;33.83;;;22.48;;
22240;SDS011;11289;52.524;13.694;2024-03-02T10:56:33;32.97;;;24.23;;
22240;SDS011;11289;52.524;13.694;2024-03-02T11:01:58;28.42;;;20.75;;
22240;SDS011;11289;52.524;13.694;2024-03-02T11:04:26;33.20;;;21.27;;
22240;SDS011;11289;52.524;13.694;2024-03-02T11:09:27;37.67;;;26.48;;
22240;SDS011;11289;52.524;13.694;2024-03-02T11:14:37;32.17;;;21.85;;
22240;SDS011;11289;52.524;13.694;2024-03-02T11:17:05;28.27;;;20.30;;
22240;SDS011;11289;52.524;13.694;2024-03-02T11:19:32;27.83;;;18.98;;
22240;SDS011;11289;52.524;13.694;2024-03-02T11:21:59;29.52;;;20.98;;
22240;SDS011;11289;52.524;13.694;2024-03-02T11:24:28;30.42;;;20.38;;
22240;SDS011;11289;52.524;13.694;2024-03-02T11:27:05;31.38;;;20.33;;
22240;SDS011;11289;52.524;13.694;2024-03-02T11:32:02;30.50;;;21.77;;
22240;SDS011;11289;52.524;13.694;2024-03-02T11:34:29;30.52;;;20.48;;
22240;SDS011;11289;52.524;13.694;2024-03-02T11:36:59;30.30;;;21.52;;
22240;SDS011;11289;52.524;13.694;2024-03-02T11:39:30;26.40;;;19.63;;
22240;SDS011;11289;52.524;13.694;2024-03-02T11:41:56;26.83;;;19.05;;
22240;SDS011;11289;52.524;13.694;2024-03-02T11:44:27;30.08;;;20.15;;
22240;SDS011;11289;52.524;13.694;2024-03-02T11:47:00;26.98;;;18.35;;
22240;SDS011;11289;52.524;13.694;2024-03-02T11:49:39;30.98;;;19.85;;
22240;SDS011;11289;52.524;13.694;2024-03-02T11:52:11;31.20;;;20.13;;
22240;SDS011;11289;52.524;13.694;2024-03-02T11:54:41;30.23;;;20.45;;
22240;SDS011;11289;52.524;13.694;2024-03-02T11:57:20;26.15;;;18.23;;
22240;SDS011;11289;52.524;13.694;2024-03-02T11:59:48;27.38;;;19.80;;
22240;SDS011;11289;52.524;13.694;2024-03-02T12:02:16;33.42;;;20.60;;
22240;SDS011;11289;52.524;13.694;2024-03-02T12:04:46;31.40;;;20.27;;
22240;SDS011;11289;52.524;13.694;2024-03-02T12:07:20;26.63;;;18.67;;
22240;SDS011;11289;52.524;13.694;2024-03-02T12:09:48;25.55;;;17.92;;
22240;SDS011;11289;52.524;13.694;2024-03-02T12:12:15;25.70;;;16.48;;
22240;SDS011;11289;52.524;13.694;2024-03-02T12:14:50;22.13;;;15.70;;
22240;SDS011;11289;52.524;13.694;2024-03-02T12:17:18;23.40;;;16.30;;
22240;SDS011;11289;52.524;13.694;2024-03-02T12:19:44;22.10;;;16.25;;
22240;SDS011;11289;52.524;13.694;2024-03-02T12:22:11;23.25;;;16.55;;
22240;SDS011;11289;52.524;13.694;2024-03-02T12:24:37;26.10;;;18.02;;
22240;SDS011;11289;52.524;13.694;2024-03-02T12:27:04;28.25;;;17.23;;
22240;SDS011;11289;52.524;13.694;2024-03-02T12:29:32;27.90;;;15.90;;
22240;SDS011;11289;52.524;13.694;2024-03-02T12:31:59;23.88;;;16.50;;
22240;SDS011;11289;52.524;13.694;2024-03-02T12:34:27;20.80;;;14.90;;
22240;SDS011;11289;52.524;13.694;2024-03-02T12:36:54;25.33;;;16.80;;
22240;SDS011;11289;52.524;13.694;2024-03-02T12:39:20;27.35;;;17.27;;
22240;SDS011;11289;52.524;13.694;2024-03-02T12:41:48;23.02;;;16.38;;
22240;SDS011;11289;52.524;13.694;2024-03-02T12:44:17;23.77;;;15.98;;
22240;SDS011;11289;52.524;13.694;2024-03-02T12:46:44;23.35;;;14.65;;
22240;SDS011;11289;52.524;13.694;2024-03-02T12:49:11;26.08;;;17.42;;
22240;SDS011;11289;52.524;13.694;2024-03-02T12:51:40;21.23;;;15.60;;
22240;SDS011;11289;52.524;13.694;2024-03-02T12:54:07;24.15;;;15.65;;
22240;SDS011;11289;52.524;13.694;2024-03-02T12:56:34;23.00;;;16.40;;
22240;SDS011;11289;52.524;13.694;2024-03-02T12:59:01;24.48;;;16.13;;
22240;SDS011;11289;52.524;13.694;2024-03-02T13:01:27;21.95;;;15.52;;
22240;SDS011;11289;52.524;13.694;2024-03-02T13:03:53;20.40;;;13.60;;
22240;SDS011;11289;52.524;13.694;2024-03-02T13:06:23;19.88;;;13.73;;
22240;SDS011;11289;52.524;13.694;2024-03-02T13:08:49;24.23;;;15.07;;
22240;SDS011;11289;52.524;13.694;2024-03-02T13:11:16;21.98;;;13.93;;
22240;SDS011;11289;52.524;13.694;2024-03-02T13:13:42;21.05;;;14.25;;
22240;SDS011;11289;52.524;13.694;2024-03-02T13:16:11;20.13;;;13.55;;
22240;SDS011;11289;52.524;13.694;2024-03-02T13:18:39;22.77;;;14.52;;
22240;SDS011;11289;52.524;13.694;2024-03-02T13:21:08;26.45;;;15.32;;
22240;SDS011;11289;52.524;13.694;2024-03-02T13:23:34;22.83;;;15.55;;
22240;SDS011;11289;52.524;13.694;2024-03-02T13:26:00;21.60;;;13.93;;
22240;SDS011;11289;52.524;13.694;2024-03-02T13:28:27;20.05;;;14.60;;
22240;SDS011;11289;52.524;13.694;2024-03-02T13:30:53;22.42;;;14.13;;
22240;SDS011;11289;52.524;13.694;2024-03-02T13:33:19;22.25;;;15.30;;
22240;SDS011;11289;52.524;13.694;2024-03-02T13:35:51;21.50;;;14.00;;
22240;SDS011;11289;52.524;13.694;2024-03-02T13:38:18;21.48;;;13.13;;
22240;SDS011;11289;52.524;13.694;2024-03-02T13:40:45;22.02;;;15.35;;
22240;SDS011;11289;52.524;13.694;2024-03-02T13:43:12;21.20;;;14.27;;
22240;SDS011;11289;52.524;13.694;2024-03-02T13:45:38;21.42;;;13.95;;
22240;SDS011;11289;52.524;13.694;2024-03-02T13:48:04;22.02;;;15.40;;
22240;SDS011;11289;52.524;13.694;2024-03-02T13:50:31;21.42;;;14.73;;
22240;SDS011;11289;52.524;13.694;2024-03-02T13:52:58;20.60;;;13.93;;
22240;SDS011;11289;52.524;13.694;2024-03-02T13:55:25;23.48;;;14.13;;
22240;SDS011;11289;52.524;13.694;2024-03-02T13:57:50;18.10;;;13.13;;
22240;SDS011;11289;52.524;13.694;2024-03-02T14:00:17;24.73;;;15.02;;
22240;SDS011;11289;52.524;13.694;2024-03-02T14:02:43;22.77;;;14.95;;
22240;SDS011;11289;52.524;13.694;2024-03-02T14:05:09;19.70;;;14.40;;
22240;SDS011;11289;52.524;13.694;2024-03-02T14:07:40;22.20;;;14.48;;
22240;SDS011;11289;52.524;13.694;2024-03-02T14:10:06;20.65;;;13.73;;
22240;SDS011;11289;52.524;13.694;2024-03-02T14:12:32;23.23;;;13.13;;
22240;SDS011;11289;52.524;13.694;2024-03-02T14:14:59;22.30;;;14.27;;
22240;SDS011;11289;52.524;13.694;2024-03-02T14:17:28;19.27;;;13.98;;
22240;SDS011;11289;52.524;13.694;2024-03-02T14:19:54;20.55;;;13.60;;
22240;SDS011;11289;52.524;13.694;2024-03-02T14:22:20;20.48;;;13.35;;
22240;SDS011;11289;52.524;13.694;2024-03-02T14:24:46;20.17;;;13.35;;
22240;SDS011;11289;52.524;13.694;2024-03-02T14:27:13;24.02;;;14.20;;
22240;SDS011;11289;52.524;13.694;2024-03-02T14:29:40;20.60;;;14.18;;